Latest Weather Observations for Archerfield

IDQ60901

Issued at 5:51 pm EST Tuesday 10 December 2019 (issued every 10 minutes, with the page automatically refreshed every 10 minutes)

About weather observations | Map of Brisbane area stations | Latest observations for Brisbane area | Other Formats
Station Details ID: 040211 Name: ARCHERFIELD AIRPORT Lat: -27.57 Lon: 153.01 Height: 12.5 m
Data from the previous 72 hours. | See also: Recent months at Archerfield
Date/Time
EST
Temp
°C
App
Temp
°C
Dew
Point
°C
Rel
Hum
%
Delta-T
°C
Wind Press
QNH
hPa
Press
MSL
hPa
Rain since
9am
mm
Dir  Spd
km/h
Gust
km/h
Spd
kts
Gust
kts
10/05:30pm 28.5 25.2 18.0 53 6.7 NNE 32 39 17 21 1012.6 1012.5 0.0
10/05:00pm 29.3 26.1 18.1 51 7.2 NNE 32 41 17 22 1012.3 1012.2 0.0
10/04:30pm 29.5 26.2 18.0 50 7.3 NNE 32 43 17 23 1012.2 1012.1 0.0
10/04:00pm 30.8 28.1 18.5 47 7.9 NNE 30 39 16 21 1012.2 1012.1 0.0
10/03:30pm 31.4 28.8 18.7 46 8.2 NNE 30 37 16 20 1012.6 1012.5 0.0
10/03:00pm 31.6 28.6 18.6 46 8.4 NNE 32 39 17 21 1012.8 1012.7 0.0
10/02:30pm 31.9 29.4 18.8 45 8.5 N 30 37 16 20 1013.3 1013.2 0.0
10/02:00pm 32.1 29.9 18.7 45 8.7 NNE 28 37 15 20 1013.7 1013.6 0.0
10/01:30pm 32.8 30.9 18.6 43 9.2 NNE 26 33 14 18 1013.9 1013.8 0.0
10/01:00pm 34.0 33.0 19.6 42 9.5 NE 24 43 13 23 1014.3 1014.2 0.0
10/12:30pm 33.9 34.8 19.2 42 9.7 NNW 13 26 7 14 1014.8 1014.7 0.0
10/12:00pm 32.2 32.2 17.3 41 9.5 N 13 28 7 15 1015.5 1015.4 0.0
10/11:30am 32.3 32.3 18.1 42 9.2 N 15 24 8 13 1016.0 1015.9 0.0
10/11:00am 30.8 32.0 18.2 47 8.1 WNW 9 20 5 11 1016.6 1016.5 0.0
10/10:30am 31.2 32.8 18.2 46 8.4 NNW 7 17 4 9 1017.1 1017.0 0.0
10/10:00am 30.0 29.9 17.8 48 7.8 NNW 15 20 8 11 1017.5 1017.4 0.0
10/09:30am 29.9 30.2 18.0 48 7.6 NNE 13 19 7 10 1017.8 1017.7 0.0
10/09:00am 29.5 29.3 18.6 52 7.0 N 17 26 9 14 1017.9 1017.8 0.0
10/08:30am 28.1 29.4 19.3 58 5.7 N 11 19 6 10 1018.1 1018.0 0.0
10/08:00am 27.0 28.0 19.4 63 4.9 NNW 13 19 7 10 1018.1 1018.0 0.0
10/07:30am 26.4 26.8 19.8 67 4.3 N 17 22 9 12 1018.0 1017.9 0.0
10/07:00am 25.8 26.2 20.6 73 3.4 N 19 22 10 12 1018.1 1018.0 0.0
10/06:30am 24.9 27.1 21.2 80 2.4 N 11 15 6 8 1018.0 1017.9 0.0
10/06:00am 23.3 27.1 21.0 87 1.5 S 2 6 1 3 1018.0 1017.9 0.0
10/05:30am 22.6 25.5 20.7 89 1.2 S 6 7 3 4 1017.8 1017.7 0.0
10/05:00am 22.2 24.9 20.3 89 1.2 S 6 7 3 4 1017.7 1017.6 0.0
10/04:30am 22.2 24.8 20.1 88 1.4 S 6 7 3 4 1017.5 1017.4 0.0
10/04:00am 22.4 25.5 20.3 88 1.4 SSE 4 6 2 3 1017.5 1017.4 0.0
10/03:30am 22.4 25.0 20.5 89 1.2 SSW 7 9 4 5 1017.4 1017.3 0.0
10/03:00am 22.5 25.1 20.4 88 1.4 SSW 7 9 4 5 1017.2 1017.1 0.0
10/02:30am 23.0 26.0 20.9 88 1.4 NE 6 6 3 3 1017.2 1017.1 0.0
10/02:00am 22.7 25.2 20.2 86 1.6 NNE 7 9 4 5 1017.3 1017.2 0.0
10/01:30am 23.3 26.0 20.6 85 1.8 NNE 7 9 4 5 1017.5 1017.4 0.0
10/01:00am 23.7 26.0 20.6 83 2.0 N 9 11 5 6 1017.7 1017.6 0.0
10/12:30am 23.5 26.1 20.4 83 2.0 N 7 9 4 5 1018.1 1018.0 0.0
10/12:00am 24.4 27.4 21.3 83 2.0 NNW 7 13 4 7 1018.4 1018.3 0.0
 
Date/Time
EST
Temp
°C
App
Temp
°C
Dew
Point
°C
Rel
Hum
%
Delta-T
°C
Wind Press
QNH
hPa
Press
MSL
hPa
Rain since
9am
mm
Dir  Spd
km/h
Gust
km/h
Spd
kts
Gust
kts
09/11:30pm 24.3 26.8 21.0 82 2.2 N 9 13 5 7 1018.5 1018.4 0.0
09/11:00pm 25.0 27.3 21.3 80 2.4 N 11 17 6 9 1018.9 1018.8 0.0
09/10:30pm 24.5 26.7 21.2 82 2.2 NE 11 15 6 8 1019.1 1019.0 0.0
09/10:00pm 24.3 26.2 20.6 80 2.4 NE 11 13 6 7 1019.3 1019.2 0.0
09/09:30pm 24.8 26.5 20.9 79 2.6 NE 13 17 7 9 1019.5 1019.4 0.0
09/09:00pm 24.8 26.4 20.7 78 2.7 NE 13 17 7 9 1019.5 1019.4 0.0
09/08:30pm 25.0 26.6 20.7 77 2.8 NE 13 17 7 9 1019.5 1019.4 0.0
09/08:00pm 25.4 26.9 21.3 78 2.7 NE 15 20 8 11 1019.4 1019.3 0.0
09/07:30pm 25.6 26.4 20.6 74 3.3 NE 17 22 9 12 1019.2 1019.1 0.0
09/07:00pm 26.3 27.2 20.8 71 3.6 ENE 17 22 9 12 1019.0 1018.9 0.0
09/06:30pm 26.7 27.0 20.5 69 4.1 E 19 24 10 13 1018.7 1018.6 0.0
09/06:00pm 27.1 27.1 20.2 66 4.5 ENE 20 26 11 14 1018.3 1018.2 0.0
09/05:30pm 27.8 27.5 19.6 61 5.3 E 20 28 11 15 1018.2 1018.1 0.0
09/05:00pm 28.7 27.5 19.3 56 6.1 ENE 24 32 13 17 1018.0 1017.9 0.0
09/04:30pm 29.5 28.7 19.2 54 6.7 ENE 22 30 12 16 1018.1 1018.0 0.0
09/04:00pm 30.1 29.4 19.5 53 6.9 E 22 32 12 17 1017.9 1017.8 0.0
09/03:30pm 29.8 28.9 18.3 50 7.4 E 20 30 11 16 1018.0 1017.9 0.0
09/03:00pm 30.8 29.4 18.8 48 7.8 E 24 32 13 17 1018.1 1018.0 0.0
09/02:30pm 30.3 28.9 18.7 50 7.5 ENE 24 33 13 18 1018.3 1018.2 0.0
09/02:00pm 31.4 30.0 18.7 46 8.2 ENE 24 32 13 17 1018.6 1018.5 0.0
09/01:30pm 31.4 29.8 19.1 48 8.0 E 26 33 14 18 1018.9 1018.8 0.0
09/01:00pm 30.6 29.0 18.3 47 7.9 E 24 33 13 18 1019.1 1019.0 0.0
09/12:30pm 31.2 29.5 18.9 48 8.0 E 26 37 14 20 1019.4 1019.3 0.0
09/12:00pm 31.0 30.1 19.0 48 7.8 E 22 33 12 18 1019.6 1019.5 0.0
09/11:30am 31.0 30.2 20.0 52 7.3 ESE 24 33 13 18 1020.0 1019.9 0.0
09/11:00am 31.1 30.2 19.8 51 7.4 E 24 33 13 18 1020.2 1020.1 0.0
09/10:30am 31.1 30.0 19.4 49 7.7 SE 24 33 13 18 1020.2 1020.1 0.0
09/10:00am 30.3 29.8 18.7 50 7.5 ESE 19 28 10 15 1020.4 1020.3 0.0
09/09:30am 30.0 29.5 19.1 52 7.1 ESE 20 28 11 15 1020.5 1020.4 0.0
09/09:00am 28.9 28.9 18.9 54 6.4 SE 17 24 9 13 1020.6 1020.5 0.0
09/08:30am 28.7 27.7 18.8 55 6.4 ESE 22 32 12 17 1020.7 1020.6 0.0
09/08:00am 27.5 27.1 19.0 59 5.5 SE 19 24 10 13 1020.8 1020.7 0.0
09/07:30am 26.7 27.4 18.8 62 5.1 SE 13 24 7 13 1020.7 1020.6 0.0
09/07:00am 25.4 26.0 17.6 62 4.9 SSE 11 17 6 9 1020.5 1020.4 0.0
09/06:30am 23.5 23.9 17.3 68 3.8 SSE 11 17 6 9 1020.3 1020.2 0.0
09/06:00am 22.3 22.7 17.2 73 3.1 SSW 11 15 6 8 1020.2 1020.1 0.0
09/05:30am 21.2 22.5 17.6 80 2.2 SW 7 9 4 5 1020.0 1019.9 0.0
09/05:00am 20.9 22.4 17.5 81 2.1 SW 6 7 3 4 1019.7 1019.6 0.0
09/04:30am 21.0 22.3 17.6 81 2.1 W 7 7 4 4 1019.5 1019.4 0.0
09/04:00am 21.0 22.8 17.4 80 2.2 WSW 4 6 2 3 1019.3 1019.2 0.0
09/03:30am 21.0 23.7 17.8 82 2.0 CALM 0 4 0 2 1019.2 1019.1 0.0
09/03:00am 21.7 23.2 17.5 77 2.6 SSW 6 9 3 5 1019.1 1019.0 0.0
09/02:30am 22.3 23.7 17.4 74 3.0 SW 6 7 3 4 1019.1 1019.0 0.0
09/02:00am 22.8 24.2 17.9 74 3.0 SSE 7 9 4 5 1019.0 1018.9 0.0
09/01:30am 23.3 23.9 18.6 75 3.0 SSE 13 19 7 10 1019.1 1019.0 0.0
09/01:00am 23.5 25.0 18.8 75 3.0 SSE 9 15 5 8 1019.3 1019.2 0.0
09/12:30am 23.9 25.4 19.0 74 3.1 SSE 9 11 5 6 1019.6 1019.5 0.0
09/12:00am 24.1 25.4 19.4 75 3.0 SSE 11 15 6 8 1019.9 1019.8 0.0
 
Date/Time
EST
Temp
°C
App
Temp
°C
Dew
Point
°C
Rel
Hum
%
Delta-T
°C
Wind Press
QNH
hPa
Press
MSL
hPa
Rain since
9am
mm
Dir  Spd
km/h
Gust
km/h
Spd
kts
Gust
kts
08/11:30pm 24.3 25.0 19.6 75 3.0 SE 15 20 8 11 1019.9 1019.8 0.0
08/11:00pm 24.2 24.0 19.7 76 2.9 SE 20 30 11 16 1020.0 1019.9 0.0
08/10:30pm 24.2 24.2 19.7 76 2.9 SE 19 24 10 13 1020.2 1020.1 0.0
08/10:00pm 24.1 23.8 19.6 76 2.9 ESE 20 28 11 15 1020.0 1019.9 0.0
08/09:30pm 24.1 24.1 19.8 77 2.8 ESE 19 22 10 12 1019.8 1019.7 0.0
08/09:00pm 24.3 24.8 20.0 77 2.8 ESE 17 26 9 14 1019.7 1019.6 0.0
08/08:30pm 24.1 24.1 19.8 77 2.8 ESE 19 28 10 15 1019.4 1019.3 0.0
08/08:00pm 24.2 23.9 19.5 75 3.0 ESE 20 26 11 14 1019.2 1019.1 0.0
08/07:30pm 24.6 23.9 19.4 73 3.3 E 22 32 12 17 1018.9 1018.8 0.0
08/07:00pm 24.8 22.8 19.2 71 3.6 E 28 33 15 18 1018.6 1018.5 0.0
08/06:30pm 25.2 24.7 19.1 69 3.9 E 20 30 11 16 1018.2 1018.1 0.0
08/06:00pm 25.6 23.8 18.8 66 4.3 E 26 35 14 19 1017.6 1017.5 0.0
08/05:30pm 25.9 24.0 18.6 64 4.6 E 26 35 14 19 1016.6 1016.5 0.0
08/05:00pm 26.8 23.7 18.4 60 5.3 ESE 32 43 17 23 1015.8 1015.7 0.0
08/04:30pm 27.8 25.2 17.9 54 6.3 E 28 39 15 21 1015.2 1015.1 0.0
08/04:00pm 28.5 25.1 17.7 52 6.8 ESE 32 39 17 21 1014.8 1014.7 0.0
08/03:30pm 29.7 27.1 17.8 48 7.6 ESE 28 35 15 19 1014.7 1014.6 0.0
08/03:00pm 30.3 28.0 17.7 46 8.0 ESE 26 37 14 20 1014.7 1014.6 0.0
08/02:30pm 30.8 29.3 17.8 45 8.3 ENE 22 35 12 19 1014.8 1014.7 0.0
08/02:00pm 31.1 30.4 17.4 44 8.7 E 17 30 9 16 1014.9 1014.8 0.0
08/01:30pm 31.2 30.9 18.2 46 8.4 ESE 17 24 9 13 1015.1 1015.0 0.0
08/01:00pm 30.6 29.5 17.3 45 8.4 ESE 19 28 10 15 1015.4 1015.3 0.0
08/12:30pm 29.9 30.0 17.4 47 7.9 SE 13 22 7 12 1015.6 1015.5 0.0
08/12:00pm 29.3 28.9 17.2 48 7.6 E 15 20 8 11 1016.1 1016.0 0.0
08/11:30am 28.6 27.8 17.2 50 7.2 E 17 22 9 12 1016.3 1016.2 0.0
08/11:00am 27.9 27.7 16.8 50 6.9 E 13 20 7 11 1016.7 1016.6 0.0
08/10:30am 28.0 28.0 17.2 52 6.8 SE 13 19 7 10 1017.0 1016.9 0.0
08/10:00am 27.2 27.4 16.8 53 6.5 E 11 20 6 11 1017.2 1017.1 0.0
08/09:30am 26.9 26.5 17.1 55 6.1 ESE 15 20 8 11 1017.2 1017.1 0.0
08/09:00am 26.2 25.5 16.4 54 6.0 S 15 19 8 10 1017.2 1017.1 0.0
08/08:30am 26.2 25.2 16.7 56 5.9 SE 17 26 9 14 1017.1 1017.0 0.0
08/08:00am 25.6 25.1 17.0 59 5.3 S 15 20 8 11 1017.1 1017.0 0.0
08/07:30am 24.4 24.1 16.4 61 4.9 S 13 19 7 10 1017.1 1017.0 0.0
08/07:00am 24.1 24.2 16.6 63 4.6 S 11 17 6 9 1017.0 1016.9 0.0
08/06:30am 23.5 24.8 17.5 69 3.7 SW 7 9 4 5 1016.5 1016.4 0.0
08/06:00am 22.9 23.6 17.1 70 3.6 WSW 9 13 5 7 1015.9 1015.8 0.0
08/05:30am 22.5 24.3 17.4 73 3.1 WSW 4 7 2 4 1015.3 1015.2 0.0
08/05:00am 22.6 23.4 17.3 72 3.3 SSE 9 11 5 6 1014.8 1014.7 0.0
08/04:30am 22.3 22.3 17.2 73 3.1 SSE 13 19 7 10 1014.1 1014.0 0.0
08/04:00am 22.5 22.1 17.2 72 3.3 SE 15 20 8 11 1013.6 1013.5 0.0
08/03:30am 22.7 21.9 17.2 71 3.4 SE 17 24 9 13 1013.7 1013.6 0.0
08/03:00am 22.9 21.7 17.4 71 3.4 SE 20 28 11 15 1013.6 1013.5 0.0
08/02:30am 23.1 22.4 17.3 70 3.6 ESE 17 32 9 17 1013.5 1013.4 0.0
08/02:00am 23.1 23.4 17.1 69 3.7 ESE 11 19 6 10 1013.5 1013.4 0.0
08/01:30am 23.0 23.5 16.5 67 4.0 ESE 9 13 5 7 1013.6 1013.5 0.0
08/01:00am 23.6 23.7 16.4 64 4.4 E 11 17 6 9 1013.6 1013.5 0.0
08/12:30am 23.7 23.4 16.5 64 4.4 ESE 13 22 7 12 1013.5 1013.4 0.0
08/12:00am 23.8 23.4 16.3 63 4.6 ESE 13 20 7 11 1013.4 1013.3 0.0
 
Date/Time
EST
Temp
°C
App
Temp
°C
Dew
Point
°C
Rel
Hum
%
Delta-T
°C
Wind Press
QNH
hPa
Press
MSL
hPa
Rain since
9am
mm
Dir  Spd
km/h
Gust
km/h
Spd
kts
Gust
kts
07/11:30pm 24.0 23.7 16.5 63 4.6 ESE 13 19 7 10 1013.7 1013.6 0.0
07/11:00pm 24.1 24.2 16.4 62 4.7 ESE 11 17 6 9 1013.9 1013.8 0.0
07/10:30pm 24.4 22.9 16.4 61 4.9 SE 19 22 10 12 1013.8 1013.7 0.0
07/10:00pm 24.5 23.8 16.5 61 4.9 SE 15 24 8 13 1013.6 1013.5 0.0
07/09:30pm 24.6 23.8 17.1 63 4.6 SE 17 22 9 12 1013.3 1013.2 0.0
07/09:00pm 24.8 23.4 17.0 62 4.8 SE 20 28 11 15 1012.9 1012.8 0.0
07/08:30pm 24.9 23.7 17.6 64 4.6 SE 20 30 11 16 1012.5 1012.4 0.0
07/08:00pm 24.9 24.1 18.4 67 4.1 SE 20 30 11 16 1012.2 1012.1 0.0
07/07:30pm 25.0 23.8 18.4 66 4.2 ESE 22 32 12 17 1011.9 1011.8 0.0
07/07:00pm 25.4 24.1 19.1 68 4.0 ESE 24 33 13 18 1011.5 1011.4 0.0
07/06:30pm 26.0 24.9 19.4 67 4.3 ESE 24 33 13 18 1010.8 1010.7 0.0
07/06:00pm 26.9 26.4 20.0 66 4.5 ESE 22 35 12 19 1010.1 1010.0 0.0

Latest Capital City Observations: Canberra | Sydney | Melbourne | Brisbane | Adelaide | Perth | Hobart | Darwin

Other formats

Comma delimited format used in spreadsheet applications
http://www.bom.gov.au/fwo/IDQ60901/IDQ60901.94575.axf

JavaScript Object Notation format (JSON) in row-major order
http://www.bom.gov.au/fwo/IDQ60901/IDQ60901.94575.json

Data quality

Most of these data are generated automatically and are frequently updated. Quality checks on data are not normally performed. It is possible for incorrect values to appear. Refer to information at About Latest Weather Observations and please check the disclaimer before using these data.